Terminal Aerodrome Forecast
Issued by NWS

Home | Current Version | Previous Version | Text Only | Print | Product List | Glossary Off
Versions: 1 2 3 4 5 6 7 8 9 10 11 12 13 14 15 16

000
FTUS43 KBIS 070500
TAFMOT
TAF
KMOT 070535Z 0706/0806 32007KT P6SM VCTS SCT050CB BKN090
     FM071400 29012KT P6SM VCTS SCT040CB BKN060 OVC100
     FM071800 31019G29KT P6SM VCTS BKN050CB BKN080
     FM080200 29012KT P6SM BKN060=

USA.gov is the U.S. government's official web portal to all federal, state and local government web resources and services.